21-й км

Карта отелей и гостиниц, располагающихся рядом с аэропортом 21-й км :

21-й км Чукотский автономный округ 69° 36' 7.9704" N, 170° 44' 1.9392" E
21-й км Чукотский автономный округ 69° 36' 7.9704" N, 170° 44' 1.9392" E
Код аэродрома ИКАО
HE75
Код аэродрома RU
ХЕ75
Координаты
N69.60221° E170.73387°
Превышение над уровнем моря
172
Основная полоса
02/20
Курс магнитный
023,9/203,9
Длина основной ВПП
51
Ширина основной ВПП
40
Покрытие основной ВПП
Твёрдое
Освещение ВПП
Нет
Тип: 
Вертодром
Класс аэродрома: 
Принадлежность: 
АОН
Статус: 
Действующий
Сайт: 
E-mail аэродрома: 
Страна: 
Россия
Регион: 
Чукотский автономный округ
Город: 
Дополнительная информация: 
Владелец ПП: «Чукотская Горно-Геологическая компания», структурное подразделение компании «Кинросс Дальний Восток».

Найти трансфер

С помощью этой формы Вы можете найти трансфер из аэропорта 21-й км в город, аэропорт или вокзал:

Карта места

Javascript is required to view this map.

Погода в аэропортах:

Авиационная погода в Уфе

Регион: 
Погода METAR: 
UWUU 061030Z 30004MPS 9999 -SN OVC019 M05/M07 Q1022 R32L/1///48 TEMPO 2100 -SN BKN011
Время наблюдения
2021-12-06T10:30:00Z
Температура C
-5.0
Точка росы
-7.0
Направление ветра
300
Скорость ветра (узлы)
8
Метео видимость
6.21
Явления погоды
-SN
Условия полета
MVFR
Аэропорт подробнее: 

Авиационная погода в Николаеве

Регион: 
Погода METAR: 
UKON 061030Z 14007MPS 4500 -SHRA BR SCT005 SCT///CB 08/08 Q1011 NOSIG
Время наблюдения
2021-12-06T10:30:00Z
Температура C
8.0
Точка росы
8.0
Направление ветра
140
Скорость ветра (узлы)
14
Метео видимость
2.8
Явления погоды
-SHRA BR
Условия полета
IFR

Авиационная погода в Мирном

Регион: 
Погода METAR: 
UERR 061030Z 22004G09MPS 9999 -SN DRSN SCT006 M26/M30 Q1005 R25/820442 NOSIG RMK QFE723/0964
Время наблюдения
2021-12-06T10:30:00Z
Температура C
-26.0
Точка росы
-30.0
Направление ветра
220
Скорость ветра (узлы)
8
Метео видимость
6.21
Явления погоды
-SN DRSN
Условия полета
VFR
Аэропорт подробнее: 

Авиационная погода в Кишинёве

Регион: 
Погода METAR: 
LUKK 061030Z VRB02KT 0400 R08/0650N -DZ FG VV002 08/08 Q1007 NOSIG
Время наблюдения
2021-12-06T10:30:00Z
Температура C
8.0
Точка росы
8.0
Направление ветра
0
Скорость ветра (узлы)
2
Метео видимость
0.25
Явления погоды
-DZ FG
Условия полета
LIFR